Time;durP1;ratioP1;P1;durP2;ratioP2;P2;SDS_P1;SDS_P2;PMS_P1;PMS_P2;Temp;Humidity;BMP_temperature;BMP_pressure;BME280_temperature;BME280_humidity;BME280_pressure;Samples;Min_cycle;Max_cycle;Signal;HPM_P1;HPM_P2
2021/01/19 00:01:50;;;;;;;1.00;0.30;;;20.30;40.40;;;;;;5050360;28;20060;-47
2021/01/19 00:04:15;;;;;;;0.98;0.35;;;20.20;40.30;;;;;;5051223;28;20086;-47
2021/01/19 00:06:41;;;;;;;1.00;0.38;;;20.20;40.30;;;;;;5047378;28;20033;-45
2021/01/19 00:09:06;;;;;;;0.90;0.40;;;20.20;40.30;;;;;;5042881;28;20036;-45
2021/01/19 00:11:32;;;;;;;1.77;0.35;;;20.20;40.40;;;;;;5035497;28;20017;-48
2021/01/19 00:13:58;;;;;;;0.52;0.25;;;20.20;40.30;;;;;;5049677;28;20037;-46
2021/01/19 00:16:23;;;;;;;0.98;0.35;;;20.20;40.30;;;;;;5047918;28;20033;-43
2021/01/19 00:18:49;;;;;;;1.52;0.40;;;20.20;40.40;;;;;;5050584;28;20520;-47
2021/01/19 00:21:14;;;;;;;0.60;0.38;;;20.20;40.40;;;;;;5048055;28;20393;-46
2021/01/19 00:23:40;;;;;;;1.63;0.47;;;20.20;40.40;;;;;;5050547;28;20029;-45
2021/01/19 00:26:05;;;;;;;0.43;0.20;;;20.10;40.30;;;;;;5049704;28;20039;-45
2021/01/19 00:28:31;;;;;;;0.68;0.20;;;20.10;40.30;;;;;;5050461;28;20032;-46
2021/01/19 00:30:56;;;;;;;0.68;0.30;;;20.10;40.30;;;;;;5051489;28;20107;-47
2021/01/19 00:33:22;;;;;;;1.58;0.40;;;20.10;40.40;;;;;;5050368;28;20107;-44
2021/01/19 00:35:47;;;;;;;0.68;0.30;;;20.00;40.40;;;;;;5043347;28;20037;-47
2021/01/19 00:38:13;;;;;;;1.27;0.40;;;20.00;40.40;;;;;;5039859;28;20056;-44
2021/01/19 00:40:39;;;;;;;0.60;0.30;;;20.00;40.40;;;;;;5060106;28;20036;-47
2021/01/19 00:43:04;;;;;;;0.75;0.20;;;20.00;40.40;;;;;;5061617;28;20044;-47
2021/01/19 00:45:30;;;;;;;0.70;0.20;;;20.00;40.40;;;;;;5061570;28;20037;-45
2021/01/19 00:47:56;;;;;;;2.10;0.40;;;20.00;40.40;;;;;;5051177;28;20036;-47
2021/01/19 00:50:22;;;;;;;0.82;0.22;;;20.00;40.40;;;;;;5047634;28;20045;-46
2021/01/19 00:52:47;;;;;;;0.90;0.45;;;20.00;40.50;;;;;;5049027;28;20505;-47
2021/01/19 00:55:14;;;;;;;0.55;0.20;;;20.00;40.50;;;;;;5044264;28;20084;-45
2021/01/19 00:57:40;;;;;;;1.83;0.20;;;19.90;40.50;;;;;;5044823;28;20082;-50
2021/01/19 01:00:07;;;;;;;0.85;0.30;;;19.90;40.50;;;;;;5036701;28;20575;-49
2021/01/19 01:02:37;;;;;;;1.27;0.30;;;19.90;40.50;;;;;;5049549;28;20033;-47
2021/01/19 01:05:07;;;;;;;0.70;0.20;;;19.90;40.50;;;;;;5046026;28;20032;-47
2021/01/19 01:07:43;;;;;;;0.82;0.22;;;19.90;40.50;;;;;;5047883;28;20037;-44
2021/01/19 01:10:15;;;;;;;0.95;0.30;;;19.80;40.40;;;;;;5047545;28;20406;-48
2021/01/19 01:12:41;;;;;;;0.50;0.30;;;19.80;40.50;;;;;;5044959;28;20041;-47
2021/01/19 01:15:08;;;;;;;1.05;0.20;;;19.80;40.50;;;;;;5066488;22;20040;-53
2021/01/19 01:17:35;;;;;;;1.05;0.10;;;19.80;40.80;;;;;;5050764;28;20025;-53
2021/01/19 01:20:03;;;;;;;0.80;0.20;;;19.80;40.50;;;;;;5052087;28;20107;-51
2021/01/19 01:22:29;;;;;;;0.63;0.20;;;19.80;40.60;;;;;;5051316;28;20036;-51
2021/01/19 01:24:54;;;;;;;0.45;0.17;;;19.70;40.50;;;;;;5045937;28;20494;-52
2021/01/19 01:27:20;;;;;;;0.63;0.20;;;19.80;40.60;;;;;;5050753;28;20060;-52
2021/01/19 01:29:45;;;;;;;0.52;0.13;;;19.70;40.60;;;;;;5051978;28;20067;-52
2021/01/19 01:32:11;;;;;;;0.90;0.20;;;19.70;40.60;;;;;;5050068;28;20036;-52
2021/01/19 01:34:36;;;;;;;0.65;0.20;;;19.70;40.60;;;;;;5049575;28;20033;-52
2021/01/19 01:37:02;;;;;;;2.10;0.22;;;19.70;40.60;;;;;;5051474;28;20118;-52
2021/01/19 01:39:28;;;;;;;0.68;0.28;;;19.70;40.50;;;;;;5050713;28;20025;-52
2021/01/19 01:41:53;;;;;;;0.40;0.17;;;19.70;40.60;;;;;;5051863;28;20056;-53
2021/01/19 01:44:19;;;;;;;1.00;0.20;;;19.70;40.60;;;;;;5050920;28;20044;-52
2021/01/19 01:46:45;;;;;;;1.25;0.20;;;19.70;40.60;;;;;;5049900;28;20029;-52
2021/01/19 01:49:12;;;;;;;1.02;0.13;;;19.70;40.50;;;;;;5051159;28;20029;-53
2021/01/19 01:51:37;;;;;;;1.00;0.22;;;19.70;40.60;;;;;;5053513;28;20041;-53
2021/01/19 01:54:03;;;;;;;1.10;0.20;;;19.60;40.50;;;;;;5044195;28;20048;-52
2021/01/19 01:56:29;;;;;;;0.45;0.10;;;19.60;40.60;;;;;;5047408;28;20029;-52
2021/01/19 01:58:55;;;;;;;0.45;0.15;;;19.60;40.50;;;;;;5037556;28;20406;-53
2021/01/19 02:01:23;;;;;;;1.45;0.20;;;19.60;40.60;;;;;;5031559;28;20037;-51
2021/01/19 02:03:49;;;;;;;0.75;0.22;;;19.60;40.50;;;;;;5050540;28;20067;-52
2021/01/19 02:06:16;;;;;;;0.88;0.22;;;19.60;40.50;;;;;;5040874;28;20026;-51
2021/01/19 02:09:19;;;;;;;0.35;0.10;;;19.60;40.50;;;;;;5042929;28;20033;-52
2021/01/19 02:11:54;;;;;;;0.70;0.10;;;19.60;40.50;;;;;;5040273;28;20517;-52
2021/01/19 02:14:34;;;;;;;0.38;0.10;;;19.60;40.50;;;;;;5045213;28;20048;-52
2021/01/19 02:17:27;;;;;;;1.00;0.10;;;19.60;40.50;;;;;;5041619;28;20551;-52
2021/01/19 02:19:52;;;;;;;0.40;0.10;;;19.50;40.40;;;;;;5048543;28;20462;-53
2021/01/19 02:22:55;;;;;;;0.47;0.10;;;19.50;40.50;;;;;;5050562;28;20116;-53
2021/01/19 02:25:32;;;;;;;0.50;0.20;;;19.50;40.50;;;;;;5055182;28;20119;-52
2021/01/19 02:28:20;;;;;;;1.85;0.20;;;19.50;40.50;;;;;;5056925;28;20053;-52
2021/01/19 02:31:00;;;;;;;0.55;0.10;;;19.50;40.50;;;;;;5040929;28;20375;-53
2021/01/19 02:33:32;;;;;;;0.85;0.20;;;19.50;40.50;;;;;;5044535;28;20033;-52
2021/01/19 02:36:25;;;;;;;0.60;0.10;;;19.40;40.50;;;;;;5048813;28;20135;-53
2021/01/19 02:39:00;;;;;;;0.40;0.10;;;19.50;40.60;;;;;;5062895;28;20013;-53
2021/01/19 02:41:26;;;;;;;0.40;0.10;;;19.40;40.50;;;;;;5048966;28;20530;-53
2021/01/19 02:44:10;;;;;;;0.77;0.10;;;19.40;40.50;;;;;;5050029;28;20025;-52
2021/01/19 02:46:36;;;;;;;0.75;0.10;;;19.40;40.50;;;;;;5050963;28;20032;-53
2021/01/19 02:49:02;;;;;;;0.70;0.20;;;19.40;40.50;;;;;;5059100;28;20393;-52
2021/01/19 02:51:27;;;;;;;0.35;0.10;;;19.40;40.50;;;;;;5049839;28;20094;-52
2021/01/19 02:53:54;;;;;;;1.17;0.10;;;19.40;40.40;;;;;;5045975;28;20099;-52
2021/01/19 02:56:34;;;;;;;0.35;0.10;;;19.40;40.50;;;;;;5054242;28;20021;-51
2021/01/19 02:59:17;;;;;;;0.50;0.10;;;19.40;40.50;;;;;;5047559;28;20047;-51
2021/01/19 03:01:52;;;;;;;0.40;0.10;;;19.40;40.50;;;;;;5043088;28;20025;-52
2021/01/19 03:04:19;;;;;;;0.75;0.20;;;19.40;40.50;;;;;;5045029;28;20120;-53
2021/01/19 03:06:46;;;;;;;0.70;0.10;;;19.40;40.50;;;;;;5059051;28;20030;-52
2021/01/19 03:09:16;;;;;;;0.70;0.10;;;19.30;40.50;;;;;;5046349;28;20033;-54
2021/01/19 03:11:42;;;;;;;0.30;0.10;;;19.30;40.40;;;;;;5048701;28;20652;-53
2021/01/19 03:14:11;;;;;;;0.40;0.10;;;19.30;40.50;;;;;;5048813;28;20044;-54
2021/01/19 03:16:37;;;;;;;2.00;0.20;;;19.30;40.50;;;;;;5046621;28;20033;-52
2021/01/19 03:19:03;;;;;;;1.48;0.10;;;19.30;40.60;;;;;;5042024;28;20057;-52
2021/01/19 03:21:28;;;;;;;0.30;0.10;;;19.30;40.50;;;;;;5052145;28;20116;-53
2021/01/19 03:23:54;;;;;;;0.80;0.10;;;19.30;40.50;;;;;;5043068;28;20516;-53
2021/01/19 03:26:20;;;;;;;0.77;0.10;;;19.30;40.50;;;;;;5041608;28;20033;-53
2021/01/19 03:28:45;;;;;;;0.40;0.00;;;19.30;40.50;;;;;;5040242;28;20057;-53
2021/01/19 03:31:11;;;;;;;0.22;0.10;;;19.30;40.40;;;;;;5038810;28;20029;-52
2021/01/19 03:33:37;;;;;;;1.50;0.20;;;19.30;40.50;;;;;;5049878;28;20494;-54
2021/01/19 03:36:03;;;;;;;0.82;0.10;;;19.30;40.40;;;;;;5046806;28;20037;-52
2021/01/19 03:38:28;;;;;;;0.82;0.10;;;19.20;40.40;;;;;;5046661;28;20546;-52
2021/01/19 03:40:54;;;;;;;0.93;0.17;;;19.30;40.40;;;;;;5047409;28;20437;-52
2021/01/19 03:43:19;;;;;;;1.30;0.10;;;19.20;40.40;;;;;;5049101;28;20104;-51
2021/01/19 03:45:46;;;;;;;0.68;0.10;;;19.20;40.40;;;;;;5043462;28;20510;-52
2021/01/19 03:48:12;;;;;;;0.70;0.10;;;19.20;40.40;;;;;;5050004;28;20112;-52
2021/01/19 03:50:37;;;;;;;0.63;0.10;;;19.20;40.30;;;;;;5043446;28;20108;-53
2021/01/19 03:53:03;;;;;;;0.60;0.10;;;19.20;40.30;;;;;;5032378;28;20108;-53
2021/01/19 03:55:30;;;;;;;0.80;0.10;;;19.20;40.40;;;;;;5032833;28;20033;-51
2021/01/19 03:57:56;;;;;;;0.85;0.20;;;19.20;40.40;;;;;;5047287;28;20025;-51
2021/01/19 04:00:22;;;;;;;0.20;0.08;;;19.10;40.40;;;;;;5042891;28;20049;-53
2021/01/19 04:02:48;;;;;;;0.22;0.10;;;19.10;40.40;;;;;;5052869;28;20109;-52
2021/01/19 04:05:14;;;;;;;0.30;0.10;;;19.20;40.40;;;;;;5030374;28;20463;-52
2021/01/19 04:07:40;;;;;;;0.60;0.10;;;19.10;40.30;;;;;;5035246;28;20036;-53
2021/01/19 04:10:11;;;;;;;0.35;0.10;;;19.10;40.30;;;;;;5049518;28;20490;-52
2021/01/19 04:12:36;;;;;;;0.30;0.10;;;19.10;40.30;;;;;;5039470;28;20554;-54
2021/01/19 04:15:04;;;;;;;0.57;0.17;;;19.10;40.30;;;;;;5045743;28;20128;-52
2021/01/19 04:17:30;;;;;;;0.50;0.10;;;19.10;40.30;;;;;;5048606;28;20037;-53
2021/01/19 04:19:55;;;;;;;0.30;0.10;;;19.10;40.30;;;;;;5047680;28;20029;-52
2021/01/19 04:22:21;;;;;;;0.50;0.15;;;19.10;40.40;;;;;;5046973;28;20056;-51
2021/01/19 04:24:47;;;;;;;0.40;0.10;;;19.10;40.30;;;;;;5040912;28;20540;-52
2021/01/19 04:27:12;;;;;;;1.27;0.20;;;19.00;40.30;;;;;;5046431;28;20101;-53
2021/01/19 04:29:38;;;;;;;0.43;0.10;;;19.10;40.40;;;;;;5053060;28;20025;-53
2021/01/19 04:32:04;;;;;;;0.32;0.00;;;19.10;40.30;;;;;;5048124;28;20597;-53
2021/01/19 04:34:29;;;;;;;0.35;0.03;;;19.00;40.30;;;;;;5053851;28;20576;-53
2021/01/19 04:36:55;;;;;;;0.63;0.10;;;19.00;40.30;;;;;;5043244;28;20104;-53
2021/01/19 04:39:20;;;;;;;0.35;0.10;;;19.00;40.30;;;;;;5038512;28;20269;-52
2021/01/19 04:41:47;;;;;;;0.32;0.10;;;19.00;40.30;;;;;;5049400;28;20025;-52
2021/01/19 04:44:13;;;;;;;0.47;0.10;;;19.00;40.30;;;;;;5050140;28;20453;-52
2021/01/19 04:46:40;;;;;;;0.50;0.13;;;19.00;40.30;;;;;;5046472;28;20467;-52
2021/01/19 04:49:06;;;;;;;0.35;0.00;;;19.00;40.30;;;;;;5043195;28;20166;-52
2021/01/19 04:51:34;;;;;;;0.40;0.00;;;19.00;40.30;;;;;;5054422;28;20037;-51
2021/01/19 04:54:04;;;;;;;0.47;0.05;;;18.90;40.30;;;;;;5060702;28;20135;-53
2021/01/19 04:56:30;;;;;;;0.57;0.10;;;19.00;40.30;;;;;;5049489;28;20040;-52
2021/01/19 04:58:56;;;;;;;0.82;0.10;;;18.90;40.30;;;;;;5070606;28;20107;-53
2021/01/19 05:01:34;;;;;;;1.15;0.00;;;19.00;40.30;;;;;;5051027;28;20052;-52
2021/01/19 05:04:43;;;;;;;2.05;0.20;;;18.90;40.30;;;;;;5040178;28;20029;-51
2021/01/19 05:07:34;;;;;;;1.55;0.10;;;19.00;40.30;;;;;;5044307;28;20470;-53
2021/01/19 05:10:12;;;;;;;0.63;0.10;;;18.90;40.30;;;;;;5051975;28;20163;-52
2021/01/19 05:12:43;;;;;;;0.32;0.00;;;18.90;40.30;;;;;;5043119;28;20111;-52
2021/01/19 05:15:14;;;;;;;0.30;0.10;;;18.90;40.30;;;;;;5051702;28;20029;-52
2021/01/19 05:17:42;;;;;;;0.60;0.00;;;18.90;40.30;;;;;;5045535;28;20060;-53
2021/01/19 05:20:09;;;;;;;1.40;0.10;;;18.90;40.30;;;;;;5050488;28;20057;-52
2021/01/19 05:22:35;;;;;;;0.32;0.10;;;18.90;40.30;;;;;;5068283;28;20041;-52
2021/01/19 05:25:02;;;;;;;1.23;0.10;;;18.90;40.20;;;;;;5055081;28;20425;-51
2021/01/19 05:27:27;;;;;;;0.50;0.10;;;18.90;40.20;;;;;;5046313;28;20037;-53
2021/01/19 05:30:07;;;;;;;0.75;0.00;;;18.90;40.20;;;;;;5040859;28;20045;-52
2021/01/19 05:32:38;;;;;;;0.35;0.00;;;18.90;40.20;;;;;;5032911;28;20136;-52
2021/01/19 05:35:18;;;;;;;0.28;0.00;;;18.80;40.20;;;;;;5042244;28;20226;-52
2021/01/19 05:38:00;;;;;;;0.52;0.10;;;18.80;40.30;;;;;;5044170;28;20017;-51
2021/01/19 05:40:27;;;;;;;0.25;0.03;;;18.80;40.20;;;;;;5070700;28;20398;-52
2021/01/19 05:42:56;;;;;;;0.22;0.10;;;18.80;40.20;;;;;;5059040;28;20404;-53
2021/01/19 05:45:22;;;;;;;1.55;0.03;;;18.80;40.20;;;;;;5050440;28;20047;-53
2021/01/19 05:47:48;;;;;;;0.90;0.10;;;18.80;40.20;;;;;;5050673;28;20565;-51
2021/01/19 05:50:14;;;;;;;0.20;0.08;;;18.80;40.20;;;;;;5046640;28;20028;-52
2021/01/19 05:52:41;;;;;;;0.65;0.10;;;18.80;40.20;;;;;;5051754;28;20033;-53
2021/01/19 05:55:10;;;;;;;0.30;0.10;;;18.70;40.10;;;;;;5045735;28;20059;-53
2021/01/19 05:57:36;;;;;;;0.95;0.10;;;18.80;40.20;;;;;;5052780;28;20025;-52
2021/01/19 06:00:06;;;;;;;0.40;0.10;;;18.80;40.20;;;;;;5052340;28;20070;-52
2021/01/19 06:02:55;;;;;;;0.60;0.00;;;18.80;40.10;;;;;;5047545;28;20099;-53
2021/01/19 06:05:20;;;;;;;0.20;0.03;;;18.80;40.20;;;;;;5048282;28;20079;-52
2021/01/19 06:07:47;;;;;;;0.17;0.00;;;18.80;40.20;;;;;;5062845;28;20536;-52
2021/01/19 06:10:20;;;;;;;0.10;0.00;;;18.70;40.10;;;;;;5057932;28;20494;-52
2021/01/19 06:12:46;;;;;;;0.40;0.10;;;18.70;40.10;;;;;;5048450;28;20032;-52
2021/01/19 06:15:11;;;;;;;1.25;0.10;;;18.70;40.10;;;;;;5049300;28;20029;-52
2021/01/19 06:17:38;;;;;;;1.38;0.00;;;18.70;40.20;;;;;;5049398;28;20662;-53
2021/01/19 06:20:06;;;;;;;0.82;0.00;;;18.90;39.90;;;;;;5046079;28;20032;-53
2021/01/19 06:22:32;;;;;;;0.65;0.10;;;19.10;39.60;;;;;;5045566;28;20566;-51
2021/01/19 06:24:59;;;;;;;0.30;0.00;;;19.30;39.30;;;;;;5035405;28;20068;-52
2021/01/19 06:27:26;;;;;;;0.20;0.00;;;19.40;39.10;;;;;;5049013;28;20087;-53
2021/01/19 06:30:04;;;;;;;0.22;0.00;;;19.50;38.90;;;;;;5053212;28;20140;-53
2021/01/19 06:32:37;;;;;;;1.70;0.10;;;19.60;38.70;;;;;;5045517;28;20056;-53
2021/01/19 06:35:11;;;;;;;0.13;0.00;;;19.70;38.70;;;;;;5035950;28;20099;-52
2021/01/19 06:37:37;;;;;;;0.50;0.17;;;19.70;38.60;;;;;;5036191;28;20040;-52
2021/01/19 06:40:06;;;;;;;0.22;0.00;;;19.80;38.50;;;;;;5052657;28;20526;-51
2021/01/19 06:42:33;;;;;;;0.30;0.05;;;19.80;38.50;;;;;;5047198;28;20067;-51
2021/01/19 06:45:01;;;;;;;0.35;0.10;;;19.80;38.40;;;;;;5040052;28;20483;-51
2021/01/19 06:47:27;;;;;;;0.38;0.08;;;19.90;38.50;;;;;;5039527;28;20556;-52
2021/01/19 06:49:53;;;;;;;0.28;0.10;;;19.90;39.00;;;;;;5052220;28;20104;-51
2021/01/19 06:52:20;;;;;;;0.35;0.10;;;19.90;38.50;;;;;;5050003;28;20571;-52
2021/01/19 06:54:55;;;;;;;0.22;0.00;;;19.90;38.40;;;;;;5046984;28;20029;-53
2021/01/19 06:57:37;;;;;;;0.13;0.00;;;20.00;38.30;;;;;;5055991;28;20162;-51
2021/01/19 07:00:10;;;;;;;0.95;0.20;;;20.10;38.30;;;;;;5043098;28;20037;-52
2021/01/19 07:02:38;;;;;;;0.60;0.03;;;20.10;38.20;;;;;;5048567;28;20033;-52
2021/01/19 07:05:12;;;;;;;0.15;0.10;;;20.20;38.20;;;;;;5054482;28;20037;-51
2021/01/19 07:07:43;;;;;;;0.35;0.00;;;20.20;38.10;;;;;;5050908;28;20112;-51
2021/01/19 07:10:11;;;;;;;0.22;0.00;;;20.20;38.10;;;;;;5065030;28;20040;-51
2021/01/19 07:13:06;;;;;;;0.22;0.00;;;20.20;38.10;;;;;;5058456;28;20036;-52
2021/01/19 07:15:53;;;;;;;0.60;0.08;;;20.30;38.20;;;;;;5050239;28;20208;-49
2021/01/19 07:18:53;;;;;;;0.68;0.10;;;20.20;38.10;;;;;;5049582;28;20029;-52
2021/01/19 07:21:20;;;;;;;0.30;0.10;;;20.30;38.20;;;;;;5050650;28;20078;-50
2021/01/19 07:23:48;;;;;;;0.30;0.00;;;20.30;38.20;;;;;;5046275;28;20168;-52
2021/01/19 07:26:17;;;;;;;0.40;0.10;;;20.20;38.20;;;;;;5045729;28;20036;-51
2021/01/19 07:28:43;;;;;;;0.25;0.00;;;20.30;38.20;;;;;;5036663;28;20108;-51
2021/01/19 07:31:13;;;;;;;0.15;0.00;;;20.20;38.30;;;;;;5042276;28;20095;-52
2021/01/19 07:33:42;;;;;;;0.25;0.00;;;20.20;38.30;;;;;;5047798;28;20025;-51
2021/01/19 07:36:15;;;;;;;0.28;0.00;;;20.20;38.40;;;;;;5038107;28;20029;-52
2021/01/19 07:38:41;;;;;;;0.88;0.20;;;20.20;38.50;;;;;;5051184;28;20106;-51
2021/01/19 07:41:07;;;;;;;0.30;0.00;;;20.10;38.50;;;;;;5048930;28;20049;-52
2021/01/19 07:43:35;;;;;;;0.80;0.10;;;20.10;38.60;;;;;;5034666;28;20025;-51
2021/01/19 07:46:01;;;;;;;1.85;0.10;;;20.00;38.60;;;;;;5047515;28;20033;-51
2021/01/19 07:48:35;;;;;;;0.90;0.00;;;20.00;38.90;;;;;;5056430;28;20032;-52
2021/01/19 07:51:17;;;;;;;0.65;0.00;;;19.90;39.40;;;;;;5055566;28;20033;-51
2021/01/19 07:53:50;;;;;;;0.60;0.00;;;19.80;39.40;;;;;;5045174;28;20032;-50
2021/01/19 07:56:27;;;;;;;0.40;0.10;;;19.90;39.30;;;;;;5071605;22;20127;-48
2021/01/19 07:58:53;;;;;;;0.73;0.10;;;19.90;39.20;;;;;;5082809;28;20024;-45
2021/01/19 08:01:31;;;;;;;1.45;0.20;;;19.80;39.10;;;;;;5090385;28;20020;-45
2021/01/19 08:04:11;;;;;;;0.25;0.10;;;19.80;39.20;;;;;;5089496;28;20885;-48
2021/01/19 08:06:38;;;;;;;0.30;0.00;;;19.80;39.20;;;;;;5080326;28;20036;-48
2021/01/19 08:09:14;;;;;;;0.52;0.08;;;19.80;39.30;;;;;;5056967;28;20165;-47
2021/01/19 08:11:41;;;;;;;0.47;0.00;;;19.80;39.30;;;;;;5057182;28;20020;-47
2021/01/19 08:14:07;;;;;;;0.43;0.03;;;19.70;39.30;;;;;;5050964;28;20029;-46
2021/01/19 08:16:36;;;;;;;1.70;0.00;;;19.70;39.30;;;;;;5059436;28;20509;-46
2021/01/19 08:19:11;;;;;;;0.40;0.00;;;19.70;39.30;;;;;;5066480;28;20090;-46
2021/01/19 08:21:49;;;;;;;0.20;0.00;;;19.60;39.30;;;;;;5066495;28;20017;-46
2021/01/19 08:24:15;;;;;;;0.40;0.10;;;19.60;39.40;;;;;;5053396;28;20076;-44
2021/01/19 08:26:43;;;;;;;0.73;0.08;;;19.70;39.40;;;;;;5069930;28;20068;-46
2021/01/19 08:29:08;;;;;;;0.40;0.10;;;19.70;39.30;;;;;;5060863;28;20037;-48
2021/01/19 08:31:37;;;;;;;1.38;0.10;;;19.80;39.10;;;;;;5062652;28;20198;-46
2021/01/19 08:34:07;;;;;;;0.32;0.03;;;19.90;38.90;;;;;;5063117;28;20060;-50
2021/01/19 08:36:36;;;;;;;0.20;0.00;;;20.00;39.00;;;;;;5065449;28;20032;-48
2021/01/19 08:39:04;;;;;;;0.10;0.00;;;20.10;39.00;;;;;;5064370;28;20035;-49
2021/01/19 08:41:31;;;;;;;0.90;0.10;;;20.10;38.90;;;;;;5060343;28;20570;-48
2021/01/19 08:44:01;;;;;;;2.70;0.00;;;20.10;38.90;;;;;;5068592;28;20028;-47
2021/01/19 08:46:30;;;;;;;0.63;0.10;;;20.20;38.90;;;;;;5058030;28;20111;-49
2021/01/19 08:49:07;;;;;;;0.40;0.03;;;20.30;39.00;;;;;;5074644;28;20028;-49
2021/01/19 08:51:34;;;;;;;0.55;0.10;;;20.30;39.00;;;;;;5072690;28;20035;-49
2021/01/19 08:53:59;;;;;;;0.10;0.00;;;20.40;39.10;;;;;;5080253;28;20116;-44
2021/01/19 08:56:26;;;;;;;0.47;0.10;;;20.40;39.10;;;;;;5065235;28;20115;-51
2021/01/19 08:58:53;;;;;;;1.60;0.03;;;20.40;39.10;;;;;;5068907;28;20031;-49
2021/01/19 09:01:19;;;;;;;0.40;0.10;;;20.50;39.20;;;;;;5056383;28;20053;-49
2021/01/19 09:04:02;;;;;;;0.28;0.10;;;20.50;39.20;;;;;;5062388;28;20067;-45
2021/01/19 09:06:28;;;;;;;1.73;0.10;;;20.60;39.20;;;;;;5064521;28;20046;-47
2021/01/19 09:08:56;;;;;;;0.82;0.00;;;20.60;39.20;;;;;;5074482;28;20028;-46
2021/01/19 09:11:27;;;;;;;0.25;0.00;;;20.60;39.20;;;;;;5065716;28;20037;-45
2021/01/19 09:14:01;;;;;;;0.23;0.10;;;20.60;39.20;;;;;;5062893;28;20064;-49
2021/01/19 09:16:29;;;;;;;0.28;0.00;;;20.60;39.30;;;;;;5065670;28;20032;-49
2021/01/19 09:18:56;;;;;;;0.20;0.00;;;20.60;39.20;;;;;;5067040;28;20025;-48
2021/01/19 09:21:22;;;;;;;0.77;0.10;;;20.70;39.30;;;;;;5042095;28;20112;-44
2021/01/19 09:23:49;;;;;;;0.38;0.00;;;20.60;39.30;;;;;;5048298;28;20033;-46
2021/01/19 09:26:14;;;;;;;0.13;0.00;;;20.60;39.40;;;;;;5062911;28;20035;-43
2021/01/19 09:28:40;;;;;;;0.40;0.05;;;20.60;39.60;;;;;;5061649;28;20025;-48
2021/01/19 09:31:19;;;;;;;1.75;0.10;;;20.60;39.70;;;;;;5057455;28;20450;-46
2021/01/19 09:33:46;;;;;;;0.43;0.03;;;20.60;39.80;;;;;;5059453;28;20116;-49
2021/01/19 09:36:13;;;;;;;0.50;0.10;;;20.50;40.00;;;;;;5059148;28;20082;-47
2021/01/19 09:38:40;;;;;;;0.45;0.10;;;20.50;39.80;;;;;;5060706;28;20222;-45
2021/01/19 09:41:06;;;;;;;0.50;0.10;;;20.50;40.00;;;;;;5062633;28;20032;-47
2021/01/19 09:43:32;;;;;;;1.58;0.10;;;20.40;40.00;;;;;;5065293;28;20048;-46
2021/01/19 09:46:04;;;;;;;0.30;0.10;;;20.40;40.10;;;;;;5065066;28;20028;-48
2021/01/19 09:48:31;;;;;;;2.88;0.20;;;20.40;40.10;;;;;;5067332;28;20135;-48
2021/01/19 09:50:59;;;;;;;0.32;0.05;;;20.40;40.10;;;;;;5065572;28;20095;-50
2021/01/19 09:53:26;;;;;;;0.50;0.00;;;20.40;40.20;;;;;;5071303;28;20521;-47
2021/01/19 09:55:52;;;;;;;0.60;0.10;;;20.40;40.30;;;;;;5064257;28;20033;-47
2021/01/19 09:58:21;;;;;;;1.95;0.00;;;20.40;40.40;;;;;;5067619;28;20036;-48
2021/01/19 10:00:47;;;;;;;0.63;0.10;;;20.40;40.50;;;;;;5067523;28;20028;-49
2021/01/19 10:03:17;;;;;;;7.40;0.20;;;20.40;40.50;;;;;;5066124;28;20525;-46
2021/01/19 10:05:44;;;;;;;1.33;0.10;;;20.20;40.70;;;;;;5065695;28;20165;-49
2021/01/19 10:08:10;;;;;;;0.40;0.10;;;20.10;40.80;;;;;;5063038;28;20024;-47
2021/01/19 10:10:40;;;;;;;1.40;0.30;;;20.10;40.80;;;;;;5061975;28;20040;-49
2021/01/19 10:13:07;;;;;;;0.68;0.03;;;20.10;40.90;;;;;;5066791;28;20493;-49
2021/01/19 10:15:36;;;;;;;0.47;0.15;;;20.20;40.90;;;;;;5066728;28;20029;-46
2021/01/19 10:18:02;;;;;;;1.45;0.10;;;20.30;40.80;;;;;;5061350;28;20040;-50
2021/01/19 10:20:35;;;;;;;3.58;0.20;;;20.30;40.70;;;;;;5060262;28;20027;-49
2021/01/19 10:23:01;;;;;;;1.67;0.10;;;20.30;40.70;;;;;;5061014;28;20040;-47
2021/01/19 10:25:32;;;;;;;1.02;0.25;;;20.30;40.80;;;;;;5053211;28;20543;-49
2021/01/19 10:27:59;;;;;;;3.17;0.10;;;20.20;40.70;;;;;;5063754;28;20048;-49
2021/01/19 10:30:30;;;;;;;1.25;0.10;;;20.20;40.80;;;;;;5057271;28;20044;-49
2021/01/19 10:32:56;;;;;;;1.00;0.20;;;20.10;41.20;;;;;;5062670;28;20036;-49
2021/01/19 10:35:36;;;;;;;0.43;0.13;;;20.20;41.30;;;;;;5064972;28;20031;-50
2021/01/19 10:38:05;;;;;;;0.43;0.10;;;20.10;41.10;;;;;;5061830;28;20128;-50
2021/01/19 10:40:32;;;;;;;1.90;0.25;;;20.10;41.20;;;;;;5064287;28;20028;-48
2021/01/19 10:43:00;;;;;;;1.70;0.10;;;20.20;41.10;;;;;;5060539;28;20406;-49
2021/01/19 10:45:30;;;;;;;2.22;0.10;;;20.40;40.70;;;;;;5055018;28;20489;-50
2021/01/19 10:47:58;;;;;;;0.52;0.20;;;20.60;40.60;;;;;;5063491;28;20021;-48
2021/01/19 10:50:32;;;;;;;1.45;0.20;;;20.70;40.30;;;;;;5047430;28;20528;-51
2021/01/19 10:53:04;;;;;;;0.63;0.10;;;20.80;40.20;;;;;;5081440;28;20060;-48
2021/01/19 10:55:30;;;;;;;1.40;0.10;;;20.90;40.10;;;;;;5057060;28;20052;-47
2021/01/19 10:57:58;;;;;;;0.30;0.00;;;20.90;40.00;;;;;;5065433;28;20035;-49
2021/01/19 11:00:26;;;;;;;1.50;0.10;;;20.90;40.00;;;;;;5060626;28;20021;-50
2021/01/19 11:02:52;;;;;;;0.25;0.00;;;20.90;40.10;;;;;;5052024;28;20112;-51
2021/01/19 11:05:18;;;;;;;0.45;0.03;;;21.00;40.00;;;;;;5058140;28;20174;-52
2021/01/19 11:07:45;;;;;;;0.30;0.10;;;21.10;40.00;;;;;;5066269;28;20071;-51
2021/01/19 11:10:12;;;;;;;0.20;0.10;;;21.10;39.90;;;;;;5064946;28;20029;-47
2021/01/19 11:12:38;;;;;;;1.48;0.10;;;21.10;39.80;;;;;;5066256;28;20040;-50
2021/01/19 11:15:05;;;;;;;0.47;0.10;;;21.10;39.90;;;;;;5059718;28;20025;-49
2021/01/19 11:17:31;;;;;;;0.30;0.10;;;21.10;40.10;;;;;;5060793;28;20020;-47
2021/01/19 11:19:56;;;;;;;1.38;0.20;;;21.10;40.30;;;;;;5058107;28;20052;-51
2021/01/19 11:22:23;;;;;;;1.25;0.10;;;21.00;40.30;;;;;;5060533;28;20028;-46
2021/01/19 11:24:48;;;;;;;2.25;0.03;;;21.00;40.30;;;;;;5036887;28;20566;-44
2021/01/19 11:27:14;;;;;;;0.95;0.10;;;21.00;40.40;;;;;;5057906;28;20024;-48
2021/01/19 11:29:39;;;;;;;1.10;0.10;;;20.90;40.40;;;;;;5052698;28;20033;-45
2021/01/19 11:32:05;;;;;;;0.38;0.10;;;20.90;40.40;;;;;;5049254;28;20041;-49
2021/01/19 11:34:30;;;;;;;0.40;0.13;;;20.90;40.40;;;;;;5059116;28;20032;-50
2021/01/19 11:36:56;;;;;;;0.40;0.10;;;20.90;40.30;;;;;;5070508;28;20519;-51
2021/01/19 11:39:23;;;;;;;0.63;0.10;;;20.90;40.40;;;;;;5068744;28;20027;-47
2021/01/19 11:41:48;;;;;;;0.52;0.00;;;20.90;40.50;;;;;;5059550;28;20409;-49
2021/01/19 11:44:14;;;;;;;2.15;0.20;;;20.80;40.40;;;;;;5059065;28;20037;-50
2021/01/19 11:46:40;;;;;;;0.47;0.10;;;20.80;40.60;;;;;;5082523;28;20032;-49
2021/01/19 11:49:06;;;;;;;0.63;0.10;;;20.80;40.60;;;;;;5068482;28;20032;-48
2021/01/19 11:51:35;;;;;;;0.68;0.10;;;20.70;40.70;;;;;;5067702;28;20033;-48
2021/01/19 11:54:03;;;;;;;0.45;0.00;;;20.80;40.70;;;;;;5071658;28;20038;-47
2021/01/19 11:56:38;;;;;;;1.23;0.03;;;20.70;40.90;;;;;;5070774;28;20037;-47
2021/01/19 11:59:08;;;;;;;0.20;0.00;;;20.60;40.90;;;;;;5068545;28;20111;-49
2021/01/19 12:01:34;;;;;;;1.27;0.10;;;20.60;40.70;;;;;;5061645;28;20037;-43
2021/01/19 12:04:00;;;;;;;0.50;0.10;;;20.70;40.60;;;;;;5061228;28;20462;-46
2021/01/19 12:06:26;;;;;;;0.22;0.00;;;20.70;40.60;;;;;;5068513;28;20072;-48
2021/01/19 12:08:52;;;;;;;0.20;0.00;;;20.80;40.70;;;;;;5070715;28;20032;-51
2021/01/19 12:11:18;;;;;;;0.10;0.00;;;20.80;40.80;;;;;;5065387;28;20115;-45
2021/01/19 12:13:45;;;;;;;0.45;0.10;;;20.80;41.20;;;;;;5070148;28;20433;-49
2021/01/19 12:16:11;;;;;;;0.40;0.10;;;20.80;40.80;;;;;;5068461;28;20051;-47
2021/01/19 12:18:39;;;;;;;0.38;0.08;;;20.80;40.70;;;;;;5066545;28;20508;-49
2021/01/19 12:21:08;;;;;;;0.30;0.00;;;20.80;40.70;;;;;;5061556;28;20025;-46
2021/01/19 12:23:34;;;;;;;0.45;0.10;;;20.90;40.50;;;;;;5067213;28;20039;-47
2021/01/19 12:26:00;;;;;;;1.38;0.10;;;20.80;40.50;;;;;;5063490;28;20033;-52
2021/01/19 12:28:26;;;;;;;1.58;0.10;;;20.80;40.70;;;;;;5067293;28;20036;-47
2021/01/19 12:30:53;;;;;;;0.20;0.00;;;20.80;40.80;;;;;;5066133;28;20032;-48
2021/01/19 12:33:20;;;;;;;0.73;0.10;;;20.70;40.90;;;;;;5066254;28;20052;-43
2021/01/19 12:35:47;;;;;;;1.00;0.10;;;20.70;40.90;;;;;;5063541;28;20021;-49
2021/01/19 12:38:13;;;;;;;0.10;0.00;;;20.70;41.00;;;;;;5063338;28;20389;-50
2021/01/19 12:40:39;;;;;;;0.95;0.00;;;20.60;41.10;;;;;;5065070;28;20082;-49
2021/01/19 12:43:04;;;;;;;1.13;0.10;;;20.60;40.90;;;;;;5068527;28;20493;-47
2021/01/19 12:45:30;;;;;;;0.47;0.00;;;20.60;41.10;;;;;;5060446;28;20039;-49
2021/01/19 12:47:55;;;;;;;0.32;0.10;;;20.60;41.10;;;;;;5061384;28;20059;-47
2021/01/19 12:50:21;;;;;;;2.65;0.30;;;20.60;41.30;;;;;;5065867;28;20024;-47
2021/01/19 12:52:46;;;;;;;0.43;0.10;;;20.70;40.90;;;;;;5058284;28;20033;-50
2021/01/19 12:55:12;;;;;;;0.20;0.10;;;20.80;40.60;;;;;;5060890;28;21117;-47
2021/01/19 12:57:39;;;;;;;0.25;0.10;;;20.90;40.60;;;;;;5066810;28;20444;-47